Time;durP1;ratioP1;P1;durP2;ratioP2;P2;SDS_P1;SDS_P2;PMS_P1;PMS_P2;Temp;Humidity;BMP_temperature;BMP_pressure;BME280_temperature;BME280_humidity;BME280_pressure;Samples;Min_cycle;Max_cycle;Signal;HPM_P1;HPM_P2
2021/10/14 00:01:49;;;;;;;20.55;12.25;;;24.20;39.20;;;;;;6203038;28;83091;-71
2021/10/14 00:04:49;;;;;;;21.58;12.88;;;24.20;39.30;;;;;;6202912;28;83058;-71
2021/10/14 00:07:50;;;;;;;21.40;12.35;;;24.20;39.20;;;;;;6204419;28;83479;-72
2021/10/14 00:10:50;;;;;;;22.85;13.18;;;24.20;39.20;;;;;;6202662;28;83732;-72
2021/10/14 00:13:51;;;;;;;25.23;13.68;;;24.20;39.50;;;;;;6203281;28;83945;-72
2021/10/14 00:16:52;;;;;;;19.55;11.60;;;24.10;39.10;;;;;;6187046;28;84166;-71
2021/10/14 00:19:52;;;;;;;21.80;13.32;;;24.20;39.20;;;;;;6203651;28;83496;-71
2021/10/14 00:22:53;;;;;;;19.73;11.98;;;24.20;39.20;;;;;;6203896;28;83268;-70
2021/10/14 00:25:54;;;;;;;21.63;12.13;;;24.20;39.40;;;;;;6204131;28;83081;-70
2021/10/14 00:28:54;;;;;;;20.88;12.73;;;24.20;39.20;;;;;;6203278;28;83659;-70
2021/10/14 00:31:55;;;;;;;22.77;12.52;;;24.20;39.10;;;;;;6204161;28;83075;-70
2021/10/14 00:34:55;;;;;;;19.15;11.38;;;24.20;39.80;;;;;;6203626;28;84524;-71
2021/10/14 00:37:56;;;;;;;21.27;11.80;;;24.20;39.10;;;;;;6203125;28;83227;-71
2021/10/14 00:40:56;;;;;;;22.40;12.50;;;24.10;39.00;;;;;;6203636;28;86787;-71
2021/10/14 00:43:57;;;;;;;22.67;12.88;;;24.20;39.00;;;;;;6203438;28;82929;-72
2021/10/14 00:46:57;;;;;;;20.67;11.70;;;24.10;39.20;;;;;;6203131;28;83285;-72
2021/10/14 00:49:58;;;;;;;20.58;12.38;;;24.20;39.10;;;;;;6203077;28;83539;-72
2021/10/14 00:52:59;;;;;;;22.35;12.82;;;24.10;39.10;;;;;;6202960;28;83293;-72
2021/10/14 00:55:59;;;;;;;20.17;12.35;;;24.10;39.00;;;;;;6203686;28;83518;-72
2021/10/14 00:59:00;;;;;;;18.90;11.68;;;24.10;38.90;;;;;;6203574;28;83145;-72
2021/10/14 01:02:00;;;;;;;20.13;12.40;;;24.10;39.00;;;;;;6202485;28;82888;-72
2021/10/14 01:05:01;;;;;;;20.38;11.90;;;24.20;39.20;;;;;;6203535;28;83357;-72
2021/10/14 01:08:02;;;;;;;22.13;13.15;;;24.10;39.20;;;;;;6199217;28;83190;-71
2021/10/14 01:11:02;;;;;;;22.08;13.57;;;24.10;39.10;;;;;;6202387;28;85026;-72
2021/10/14 01:14:03;;;;;;;19.65;11.68;;;24.10;39.10;;;;;;6202116;28;83464;-72
2021/10/14 01:17:03;;;;;;;19.05;11.80;;;24.10;39.20;;;;;;6201815;28;83354;-73
2021/10/14 01:20:04;;;;;;;19.67;11.68;;;24.10;39.20;;;;;;6203399;28;82929;-74
2021/10/14 01:23:04;;;;;;;19.83;11.35;;;24.10;39.10;;;;;;6203616;28;83327;-73
2021/10/14 01:26:05;;;;;;;19.10;11.88;;;24.10;39.10;;;;;;6207059;28;83354;-73
2021/10/14 01:29:05;;;;;;;19.92;11.52;;;24.10;39.20;;;;;;6206668;28;82878;-74
2021/10/14 01:32:06;;;;;;;20.23;11.88;;;24.10;39.30;;;;;;6206596;28;83664;-72
2021/10/14 01:35:07;;;;;;;22.27;12.93;;;24.10;39.40;;;;;;6204383;28;83367;-72
2021/10/14 01:38:07;;;;;;;22.58;12.73;;;24.10;39.20;;;;;;6205596;28;83071;-71
2021/10/14 01:41:08;;;;;;;22.88;12.50;;;24.10;39.50;;;;;;6207157;28;83000;-71
2021/10/14 01:44:08;;;;;;;17.63;11.55;;;24.10;39.20;;;;;;6206689;28;83338;-71
2021/10/14 01:47:09;;;;;;;20.45;12.20;;;24.10;39.60;;;;;;6207217;28;83696;-70
2021/10/14 01:50:09;;;;;;;19.75;12.10;;;24.10;39.30;;;;;;6205693;28;83670;-71
2021/10/14 01:53:10;;;;;;;17.75;11.35;;;24.10;39.70;;;;;;6206899;28;84365;-71
2021/10/14 01:56:10;;;;;;;21.33;11.50;;;24.10;39.40;;;;;;6206277;28;84014;-71
2021/10/14 01:59:11;;;;;;;21.00;12.60;;;24.10;39.20;;;;;;6187001;28;83213;-71
2021/10/14 02:02:11;;;;;;;20.83;11.77;;;24.10;39.40;;;;;;6204873;28;83994;-71
2021/10/14 02:05:12;;;;;;;19.17;10.88;;;24.10;39.20;;;;;;6205163;28;84628;-72
2021/10/14 02:08:12;;;;;;;19.13;11.90;;;24.10;39.30;;;;;;6204348;28;83115;-71
2021/10/14 02:11:13;;;;;;;22.02;12.43;;;24.10;39.10;;;;;;6206144;28;84067;-71
2021/10/14 02:14:13;;;;;;;20.00;11.27;;;24.10;39.00;;;;;;6207021;28;84100;-73
2021/10/14 02:17:14;;;;;;;20.98;12.10;;;24.10;39.40;;;;;;6209452;28;82843;-72
2021/10/14 02:20:14;;;;;;;21.60;11.52;;;24.10;39.10;;;;;;6209183;28;83040;-72
2021/10/14 02:23:15;;;;;;;22.27;12.13;;;24.10;38.80;;;;;;6205608;28;83056;-72
2021/10/14 02:26:15;;;;;;;21.33;11.70;;;24.10;38.80;;;;;;6206333;28;83012;-73
2021/10/14 02:29:16;;;;;;;16.08;10.63;;;24.10;38.60;;;;;;6206015;28;83143;-71
2021/10/14 02:32:16;;;;;;;20.13;11.88;;;24.10;38.60;;;;;;6205817;28;84298;-72
2021/10/14 02:35:17;;;;;;;22.23;12.57;;;24.20;38.30;;;;;;6205636;28;83151;-72
2021/10/14 02:38:17;;;;;;;19.85;11.32;;;24.20;38.30;;;;;;6205457;28;83842;-71
2021/10/14 02:41:18;;;;;;;21.00;12.23;;;24.30;38.20;;;;;;6204508;28;84414;-71
2021/10/14 02:44:18;;;;;;;18.42;12.23;;;24.30;38.10;;;;;;6196423;28;83157;-70
2021/10/14 02:47:19;;;;;;;20.15;12.48;;;24.40;38.10;;;;;;6204345;28;83179;-71
2021/10/14 02:50:20;;;;;;;20.77;12.32;;;24.40;38.10;;;;;;6205173;28;83733;-72
2021/10/14 02:53:20;;;;;;;21.02;11.95;;;24.40;38.10;;;;;;6190825;28;85843;-66
2021/10/14 02:56:21;;;;;;;20.98;12.13;;;24.40;38.10;;;;;;6204576;28;84207;-70
2021/10/14 02:59:21;;;;;;;18.25;11.48;;;24.40;38.10;;;;;;6204192;28;83101;-71
2021/10/14 03:02:22;;;;;;;20.73;11.27;;;24.40;38.10;;;;;;6205801;28;83629;-70
2021/10/14 03:05:22;;;;;;;20.00;11.80;;;24.40;38.10;;;;;;6203861;28;85175;-71
2021/10/14 03:08:23;;;;;;;17.02;10.82;;;24.40;38.10;;;;;;6204871;28;83210;-73
2021/10/14 03:11:23;;;;;;;20.75;10.93;;;24.40;38.10;;;;;;6203645;28;83868;-71
2021/10/14 03:14:24;;;;;;;17.42;10.45;;;24.50;38.10;;;;;;6205571;28;82969;-70
2021/10/14 03:17:24;;;;;;;17.95;11.18;;;24.40;38.10;;;;;;6203854;28;83644;-70
2021/10/14 03:20:25;;;;;;;16.25;10.18;;;24.40;38.10;;;;;;6205472;28;83120;-70
2021/10/14 03:23:25;;;;;;;13.98;10.23;;;24.50;38.10;;;;;;6205033;28;83177;-70
2021/10/14 03:26:26;;;;;;;18.35;10.73;;;24.50;38.10;;;;;;6204673;28;83453;-70
2021/10/14 03:29:26;;;;;;;17.27;10.50;;;24.50;38.00;;;;;;6204232;28;83453;-71
2021/10/14 03:32:27;;;;;;;16.50;9.65;;;24.50;38.10;;;;;;6203069;28;84643;-70
2021/10/14 03:35:27;;;;;;;16.23;9.95;;;24.50;38.00;;;;;;6207802;28;82918;-67
2021/10/14 03:38:28;;;;;;;15.73;9.70;;;24.50;37.90;;;;;;6206653;28;83391;-67
2021/10/14 03:41:29;;;;;;;15.25;9.32;;;24.50;38.00;;;;;;6207033;28;81386;-66
2021/10/14 03:44:29;;;;;;;15.65;9.98;;;24.50;37.90;;;;;;6207993;28;80506;-66
2021/10/14 03:47:30;;;;;;;15.68;9.98;;;24.60;38.00;;;;;;6198953;28;83037;-66
2021/10/14 03:50:30;;;;;;;14.43;9.07;;;24.60;37.90;;;;;;6204341;28;83733;-67
2021/10/14 03:53:31;;;;;;;14.00;9.35;;;24.60;37.90;;;;;;6207869;28;82912;-67
2021/10/14 03:56:31;;;;;;;15.20;9.27;;;24.60;37.90;;;;;;6207643;28;80632;-68
2021/10/14 03:59:32;;;;;;;14.73;9.48;;;24.60;37.90;;;;;;6207726;28;80585;-67
2021/10/14 04:02:32;;;;;;;14.48;9.38;;;24.60;37.90;;;;;;6207342;28;81048;-67
2021/10/14 04:05:33;;;;;;;13.23;8.65;;;24.60;38.00;;;;;;6207546;28;80208;-67
2021/10/14 04:08:33;;;;;;;13.85;8.68;;;24.60;38.00;;;;;;6205824;28;80499;-66
2021/10/14 04:11:34;;;;;;;14.70;8.32;;;24.60;38.00;;;;;;6207372;28;80916;-69
2021/10/14 04:14:34;;;;;;;13.45;9.25;;;24.60;38.00;;;;;;6207851;28;80118;-68
2021/10/14 04:17:35;;;;;;;14.02;8.77;;;24.60;38.00;;;;;;6206242;28;80901;-68
2021/10/14 04:20:35;;;;;;;15.77;8.40;;;24.60;38.10;;;;;;6206446;28;80364;-68
2021/10/14 04:23:36;;;;;;;12.15;8.05;;;24.60;38.10;;;;;;6192066;28;80490;-67
2021/10/14 04:26:37;;;;;;;13.00;8.15;;;24.60;38.00;;;;;;6205961;28;80386;-68
2021/10/14 04:29:37;;;;;;;13.18;8.18;;;24.60;38.00;;;;;;6207370;28;81003;-68
2021/10/14 04:32:39;;;;;;;14.35;8.52;;;24.60;37.90;;;;;;6206384;28;80681;-69
2021/10/14 04:35:39;;;;;;;13.75;8.32;;;24.60;37.80;;;;;;6206505;28;80885;-68
2021/10/14 04:38:40;;;;;;;15.27;8.65;;;24.60;37.70;;;;;;6206955;28;80501;-68
2021/10/14 04:41:41;;;;;;;15.68;7.88;;;24.60;37.60;;;;;;6206615;28;81952;-67
2021/10/14 04:44:42;;;;;;;15.43;8.13;;;24.60;37.60;;;;;;6201356;28;80325;-68
2021/10/14 04:47:42;;;;;;;11.95;7.32;;;24.60;37.60;;;;;;6206370;28;80939;-69
2021/10/14 04:50:43;;;;;;;12.68;7.88;;;24.60;37.60;;;;;;6204838;28;80677;-70
2021/10/14 04:53:43;;;;;;;13.98;7.75;;;24.60;39.60;;;;;;6205366;28;80315;-68
2021/10/14 04:56:44;;;;;;;13.25;8.40;;;24.50;37.90;;;;;;6206728;28;80485;-68
2021/10/14 04:59:44;;;;;;;18.40;8.20;;;24.60;38.00;;;;;;6208947;28;80957;-69
2021/10/14 05:02:45;;;;;;;68.28;20.20;;;24.60;39.40;;;;;;6209632;28;80554;-69
2021/10/14 05:05:45;;;;;;;302.17;80.43;;;24.60;41.10;;;;;;6207856;28;82899;-71
2021/10/14 05:08:46;;;;;;;223.50;68.35;;;24.50;42.20;;;;;;6206276;28;83168;-69
2021/10/14 05:11:46;;;;;;;154.68;43.40;;;24.50;42.30;;;;;;6206155;28;83142;-70
2021/10/14 05:14:47;;;;;;;131.40;43.08;;;24.50;41.80;;;;;;6205034;28;83768;-68
2021/10/14 05:17:47;;;;;;;132.70;40.50;;;24.50;42.00;;;;;;6207392;28;83180;-69
2021/10/14 05:20:48;;;;;;;129.95;40.38;;;24.50;41.40;;;;;;6206915;28;83685;-69
2021/10/14 05:23:48;;;;;;;110.45;38.58;;;24.50;42.80;;;;;;6206550;28;90475;-70
2021/10/14 05:26:49;;;;;;;116.20;33.80;;;24.40;42.60;;;;;;6206191;28;84426;-70
2021/10/14 05:29:49;;;;;;;103.10;31.05;;;24.40;42.00;;;;;;6206930;28;83811;-70
2021/10/14 05:32:51;;;;;;;98.45;31.98;;;24.40;41.60;;;;;;6207190;28;84413;-69
2021/10/14 05:35:51;;;;;;;106.30;32.55;;;24.40;41.40;;;;;;6206110;28;83155;-68
2021/10/14 05:38:52;;;;;;;90.63;31.02;;;24.50;41.50;;;;;;6206445;28;83411;-69
2021/10/14 05:41:52;;;;;;;91.00;29.60;;;24.50;41.50;;;;;;6205999;28;83326;-68
2021/10/14 05:44:53;;;;;;;81.97;27.63;;;24.50;41.30;;;;;;6206649;28;83312;-68
2021/10/14 05:47:53;;;;;;;78.43;26.00;;;24.50;41.80;;;;;;6205153;28;85387;-69
2021/10/14 05:50:54;;;;;;;79.00;25.42;;;24.50;41.10;;;;;;6203223;28;83296;-68
2021/10/14 05:53:55;;;;;;;75.85;25.70;;;24.50;41.20;;;;;;6204492;28;84871;-73
2021/10/14 05:56:55;;;;;;;66.68;22.55;;;24.50;41.10;;;;;;6205547;28;83445;-68
2021/10/14 05:59:56;;;;;;;53.97;20.63;;;24.50;41.80;;;;;;6205290;28;83181;-67
2021/10/14 06:02:56;;;;;;;52.65;19.15;;;24.50;41.10;;;;;;6205113;28;83843;-67
2021/10/14 06:05:57;;;;;;;54.63;19.20;;;24.50;41.20;;;;;;6192342;28;84604;-73
2021/10/14 06:08:57;;;;;;;49.78;17.67;;;24.40;40.70;;;;;;6201051;28;83590;-73
2021/10/14 06:11:58;;;;;;;48.72;16.80;;;24.40;40.80;;;;;;6204498;28;83484;-72
2021/10/14 06:14:58;;;;;;;45.92;17.27;;;24.50;40.90;;;;;;6204822;28;84228;-72
2021/10/14 06:17:59;;;;;;;44.20;16.70;;;24.40;40.60;;;;;;6184981;28;86270;-71
2021/10/14 06:20:59;;;;;;;39.38;16.00;;;24.40;40.80;;;;;;6200456;28;83957;-69
2021/10/14 06:24:00;;;;;;;43.00;16.23;;;24.40;40.60;;;;;;6198933;28;84178;-69
2021/10/14 06:27:00;;;;;;;41.50;16.50;;;24.40;40.50;;;;;;6187105;28;84100;-69
2021/10/14 06:30:01;;;;;;;38.45;15.48;;;24.30;40.20;;;;;;6205218;28;84038;-70
2021/10/14 06:33:01;;;;;;;31.90;13.02;;;24.40;40.60;;;;;;6187589;28;83872;-71
2021/10/14 06:36:02;;;;;;;31.85;14.00;;;24.30;40.20;;;;;;6205259;28;83790;-70
2021/10/14 06:39:02;;;;;;;36.33;12.82;;;24.30;40.00;;;;;;6204843;28;83625;-68
2021/10/14 06:42:03;;;;;;;39.40;13.57;;;24.40;40.10;;;;;;6204614;28;83915;-69
2021/10/14 06:45:06;;;;;;;28.20;11.48;;;24.40;40.10;;;;;;6205328;28;83944;-70
2021/10/14 06:48:07;;;;;;;30.33;13.93;;;24.40;40.60;;;;;;6205128;28;83299;-67
2021/10/14 06:51:08;;;;;;;31.45;12.15;;;24.40;40.40;;;;;;6204653;28;82918;-71
2021/10/14 06:54:08;;;;;;;29.80;12.30;;;24.40;40.20;;;;;;6201790;28;84143;-68
2021/10/14 06:57:09;;;;;;;30.58;11.98;;;24.40;40.10;;;;;;6204411;28;83203;-68
2021/10/14 07:00:09;;;;;;;28.42;11.38;;;24.30;40.30;;;;;;6204533;28;83784;-66
2021/10/14 07:03:10;;;;;;;32.22;10.68;;;24.30;40.00;;;;;;6205338;28;83591;-69
2021/10/14 07:06:10;;;;;;;27.77;11.70;;;24.30;40.20;;;;;;6198732;28;84901;-69
2021/10/14 07:09:11;;;;;;;26.83;10.95;;;24.40;40.20;;;;;;6203424;28;83217;-67
2021/10/14 07:12:11;;;;;;;25.05;10.75;;;24.30;40.20;;;;;;6202138;28;83116;-70
2021/10/14 07:15:12;;;;;;;29.23;10.77;;;24.40;40.10;;;;;;6203761;28;83534;-72
2021/10/14 07:20:13;;;;;;;24.17;9.77;;;24.30;40.00;;;;;;6174523;27;76371;-69
2021/10/14 07:23:15;;;;;;;21.48;10.02;;;24.40;40.60;;;;;;6148845;28;80663;-70
2021/10/14 07:26:16;;;;;;;20.02;9.63;;;24.40;40.70;;;;;;6129564;28;83034;-70
2021/10/14 07:29:16;;;;;;;24.30;10.05;;;24.40;40.60;;;;;;6136915;28;82978;-69
2021/10/14 07:32:17;;;;;;;22.38;9.98;;;24.40;40.60;;;;;;6129926;28;83302;-68
2021/10/14 07:35:20;;;;;;;18.30;9.10;;;24.40;40.70;;;;;;6128601;28;82924;-69
2021/10/14 07:38:20;;;;;;;20.30;8.60;;;24.40;40.70;;;;;;6133481;28;83129;-68
2021/10/14 07:41:21;;;;;;;21.45;9.27;;;24.40;41.10;;;;;;6133721;28;80836;-68
2021/10/14 07:44:21;;;;;;;14.80;8.32;;;24.40;40.60;;;;;;6136412;28;81566;-69
2021/10/14 07:47:22;;;;;;;20.88;9.00;;;24.40;40.60;;;;;;6130311;28;80392;-69
2021/10/14 07:50:22;;;;;;;16.83;8.93;;;24.40;40.50;;;;;;6129636;28;80335;-70
2021/10/14 07:53:24;;;;;;;14.82;7.93;;;24.40;40.80;;;;;;6129833;28;80214;-70
2021/10/14 07:56:24;;;;;;;15.63;7.43;;;24.40;40.50;;;;;;6131032;28;80566;-69
2021/10/14 07:59:25;;;;;;;13.68;7.35;;;24.40;40.70;;;;;;6136333;28;81086;-70
2021/10/14 08:02:25;;;;;;;15.07;7.75;;;24.40;40.60;;;;;;6131751;28;80647;-71
2021/10/14 08:05:26;;;;;;;17.73;8.60;;;24.40;40.50;;;;;;6135804;28;80995;-69
2021/10/14 08:08:26;;;;;;;18.88;8.25;;;24.40;40.50;;;;;;6137931;28;80576;-69
2021/10/14 08:11:27;;;;;;;17.42;8.23;;;24.50;40.60;;;;;;6135204;28;80689;-70
2021/10/14 08:14:27;;;;;;;20.58;8.32;;;24.40;40.50;;;;;;6132128;28;80499;-69
2021/10/14 08:17:28;;;;;;;14.70;8.30;;;24.50;40.90;;;;;;6135650;28;81333;-68
2021/10/14 08:20:32;;;;;;;20.27;8.27;;;24.50;40.80;;;;;;6131402;28;80661;-69
2021/10/14 08:23:32;;;;;;;15.90;7.88;;;24.50;40.70;;;;;;6136718;28;80621;-68
2021/10/14 08:26:33;;;;;;;17.67;8.75;;;24.50;40.40;;;;;;6133586;28;81380;-69
2021/10/14 08:29:33;;;;;;;16.00;8.98;;;24.60;40.40;;;;;;6127321;28;81580;-69
2021/10/14 08:32:34;;;;;;;14.45;7.68;;;24.60;40.10;;;;;;6122480;28;80510;-68
2021/10/14 08:35:37;;;;;;;13.88;7.85;;;24.60;40.00;;;;;;6116852;28;82068;-69
2021/10/14 08:38:38;;;;;;;21.05;7.70;;;24.70;40.10;;;;;;6116277;28;80851;-68
2021/10/14 08:41:39;;;;;;;18.02;8.32;;;24.70;40.30;;;;;;6114341;28;81151;-69
2021/10/14 08:44:40;;;;;;;13.85;8.07;;;24.70;40.20;;;;;;6117886;28;80686;-69
2021/10/14 08:47:40;;;;;;;11.40;7.65;;;24.70;40.10;;;;;;6124260;28;80530;-69
2021/10/14 08:50:41;;;;;;;16.58;8.20;;;24.70;40.10;;;;;;6119509;28;80423;-69
2021/10/14 08:53:42;;;;;;;16.60;7.15;;;24.80;40.00;;;;;;6114843;28;80406;-71
2021/10/14 08:56:42;;;;;;;14.02;7.45;;;24.80;40.90;;;;;;6114723;28;80639;-69
2021/10/14 08:59:43;;;;;;;16.70;7.47;;;24.80;40.60;;;;;;6120251;28;80997;-69
2021/10/14 09:02:43;;;;;;;14.27;7.88;;;24.90;40.80;;;;;;6114124;28;80864;-69
2021/10/14 09:05:44;;;;;;;15.77;7.35;;;24.90;40.80;;;;;;6120552;28;80684;-71
2021/10/14 09:08:44;;;;;;;16.40;7.28;;;24.90;41.30;;;;;;6122095;28;81027;-69
2021/10/14 09:11:45;;;;;;;13.02;6.88;;;24.90;41.50;;;;;;6116204;28;80623;-71
2021/10/14 09:14:46;;;;;;;14.43;7.15;;;25.00;41.90;;;;;;6114095;28;80809;-69
2021/10/14 09:17:46;;;;;;;11.40;7.28;;;25.10;41.70;;;;;;6114470;28;80226;-71
2021/10/14 09:20:47;;;;;;;12.43;7.07;;;25.10;41.50;;;;;;6114831;28;81465;-69
2021/10/14 09:23:47;;;;;;;10.23;7.05;;;25.10;41.50;;;;;;6115869;28;81202;-70
2021/10/14 09:26:48;;;;;;;12.40;7.22;;;25.10;41.40;;;;;;6116378;28;81404;-72
2021/10/14 09:29:48;;;;;;;13.45;8.63;;;25.20;42.60;;;;;;6119571;28;80370;-69
2021/10/14 09:32:49;;;;;;;13.02;8.48;;;25.10;40.70;;;;;;6116888;28;80918;-68
2021/10/14 09:35:49;;;;;;;14.02;9.13;;;25.00;40.20;;;;;;6112741;28;80314;-71
2021/10/14 09:38:50;;;;;;;15.27;7.93;;;25.00;39.00;;;;;;6117090;28;80446;-69
2021/10/14 09:41:51;;;;;;;11.65;7.78;;;25.00;38.40;;;;;;6117993;28;80345;-69
2021/10/14 09:44:52;;;;;;;12.15;6.38;;;25.00;38.20;;;;;;6113449;28;80607;-70
2021/10/14 09:47:52;;;;;;;12.95;6.13;;;25.00;38.00;;;;;;6118319;28;80495;-69
2021/10/14 09:50:53;;;;;;;9.52;6.20;;;25.00;37.70;;;;;;6114996;28;80631;-70
2021/10/14 09:53:54;;;;;;;7.38;5.57;;;25.00;36.90;;;;;;6118907;28;81096;-69
2021/10/14 09:56:54;;;;;;;8.43;5.45;;;25.00;37.40;;;;;;6112206;28;80499;-69
2021/10/14 09:59:55;;;;;;;8.45;5.72;;;25.00;36.70;;;;;;6117362;28;81228;-70
2021/10/14 10:02:55;;;;;;;9.27;5.13;;;24.90;35.70;;;;;;6120617;28;80438;-69
2021/10/14 10:05:56;;;;;;;8.02;4.60;;;24.90;35.10;;;;;;6119815;28;80543;-70
2021/10/14 10:08:56;;;;;;;9.02;4.47;;;25.00;35.30;;;;;;6112066;28;80322;-69
2021/10/14 10:11:57;;;;;;;4.95;3.88;;;24.90;35.10;;;;;;6118479;28;81960;-70
2021/10/14 10:14:57;;;;;;;6.30;4.22;;;25.00;35.10;;;;;;6114124;28;80448;-70
2021/10/14 10:17:58;;;;;;;6.38;3.85;;;25.00;35.30;;;;;;6108918;28;80380;-71
2021/10/14 10:20:58;;;;;;;6.53;4.03;;;25.00;35.00;;;;;;6109677;28;80134;-71
2021/10/14 10:23:59;;;;;;;6.32;4.00;;;25.10;35.00;;;;;;6110335;28;80466;-70
2021/10/14 10:26:59;;;;;;;5.63;3.67;;;25.10;34.90;;;;;;6110778;28;80752;-70
2021/10/14 10:30:00;;;;;;;4.88;3.92;;;25.10;34.70;;;;;;6109422;28;81204;-70
2021/10/14 10:33:00;;;;;;;7.65;4.55;;;25.10;34.40;;;;;;6108523;28;81537;-71
2021/10/14 10:36:01;;;;;;;5.95;3.63;;;25.20;34.30;;;;;;6112823;28;80555;-66
2021/10/14 10:39:01;;;;;;;5.63;3.67;;;25.20;33.50;;;;;;6108739;28;80145;-64
2021/10/14 10:42:02;;;;;;;5.45;3.40;;;25.20;33.30;;;;;;6108901;28;81466;-68
2021/10/14 10:45:02;;;;;;;5.78;4.03;;;25.20;33.40;;;;;;6107950;28;80235;-68
2021/10/14 10:48:03;;;;;;;5.53;3.80;;;25.10;31.90;;;;;;6108179;28;82153;-68
2021/10/14 10:51:03;;;;;;;6.50;4.30;;;25.10;31.10;;;;;;6108083;28;81490;-70
2021/10/14 10:54:06;;;;;;;5.50;4.20;;;25.10;31.20;;;;;;6107116;28;82382;-70
2021/10/14 10:57:07;;;;;;;4.68;3.33;;;25.10;30.80;;;;;;6107070;28;81502;-68
2021/10/14 11:00:07;;;;;;;5.47;3.53;;;25.00;31.10;;;;;;6106502;28;80351;-69
2021/10/14 11:03:08;;;;;;;4.35;3.25;;;25.00;30.70;;;;;;6107877;28;83741;-67
2021/10/14 11:06:08;;;;;;;4.38;3.30;;;25.00;29.50;;;;;;6108954;28;81805;-68
2021/10/14 11:09:15;;;;;;;4.65;3.10;;;25.00;31.80;;;;;;6107475;28;80677;-69
2021/10/14 11:12:17;;;;;;;4.97;3.05;;;24.90;30.40;;;;;;6106346;28;84863;-71
2021/10/14 11:15:17;;;;;;;4.65;3.22;;;24.90;30.50;;;;;;6108060;28;81751;-70
2021/10/14 11:18:18;;;;;;;3.35;2.97;;;24.90;29.50;;;;;;6107794;28;80419;-70
2021/10/14 11:21:19;;;;;;;10.30;6.53;;;24.90;29.10;;;;;;6107961;28;81040;-68
2021/10/14 11:24:20;;;;;;;8.65;5.43;;;24.90;30.00;;;;;;6106119;28;81372;-68
2021/10/14 11:27:21;;;;;;;10.30;5.40;;;24.90;30.40;;;;;;6106633;28;80358;-70
2021/10/14 11:30:25;;;;;;;7.20;4.78;;;24.90;30.40;;;;;;6105822;28;80435;-72
2021/10/14 11:33:25;;;;;;;7.38;4.13;;;24.90;31.20;;;;;;6107301;28;81637;-69
2021/10/14 11:36:26;;;;;;;6.97;3.92;;;24.90;31.20;;;;;;6108083;28;81058;-70
2021/10/14 11:39:26;;;;;;;8.50;4.28;;;24.90;30.80;;;;;;6106054;28;83706;-70
2021/10/14 11:42:28;;;;;;;6.97;3.20;;;25.00;30.40;;;;;;6106630;28;80974;-69
2021/10/14 11:45:28;;;;;;;4.93;2.95;;;24.90;29.80;;;;;;6111460;28;80767;-68
2021/10/14 11:48:29;;;;;;;7.80;3.30;;;25.00;30.00;;;;;;6111669;28;83809;-70
2021/10/14 11:51:30;;;;;;;5.18;3.53;;;25.00;30.00;;;;;;6111391;28;80870;-70
2021/10/14 11:54:31;;;;;;;4.65;3.53;;;25.00;29.70;;;;;;6112930;28;80564;-68
2021/10/14 11:57:31;;;;;;;7.03;3.75;;;25.10;29.70;;;;;;6108241;28;81715;-69
2021/10/14 12:00:32;;;;;;;4.93;3.17;;;25.00;30.00;;;;;;6117800;28;80515;-70
2021/10/14 12:03:32;;;;;;;7.22;3.72;;;25.10;30.00;;;;;;6114698;28;80334;-69
2021/10/14 12:06:33;;;;;;;4.18;3.08;;;25.00;30.00;;;;;;6113701;28;80614;-69
2021/10/14 12:09:33;;;;;;;6.28;3.30;;;25.00;30.00;;;;;;6115229;28;82350;-69
2021/10/14 12:12:34;;;;;;;5.32;3.20;;;25.10;29.90;;;;;;6116268;28;80698;-68
2021/10/14 12:15:34;;;;;;;5.07;3.72;;;25.00;29.40;;;;;;6119136;28;81327;-69
2021/10/14 12:18:35;;;;;;;6.50;4.13;;;24.90;29.90;;;;;;6113293;28;80708;-72
2021/10/14 12:21:35;;;;;;;8.45;3.83;;;25.00;30.10;;;;;;6111253;28;80749;-72
2021/10/14 12:24:37;;;;;;;8.95;4.32;;;24.90;30.00;;;;;;6112086;28;80291;-71
2021/10/14 12:27:38;;;;;;;11.10;5.20;;;24.90;31.30;;;;;;6110749;28;80770;-70
2021/10/14 12:30:39;;;;;;;12.63;5.72;;;24.90;32.00;;;;;;6110518;28;83190;-71
2021/10/14 12:33:39;;;;;;;8.27;4.25;;;25.00;32.70;;;;;;6113013;28;81342;-71
2021/10/14 12:36:40;;;;;;;9.60;4.38;;;25.00;32.90;;;;;;6111434;28;80721;-71
2021/10/14 12:39:41;;;;;;;8.95;4.28;;;25.10;33.20;;;;;;6111687;28;81526;-71
2021/10/14 12:46:12;;;;;;;9.20;4.05;;;25.10;33.50;;;;;;6109468;28;81465;-71
2021/10/14 12:52:19;;;;;;;5.95;3.22;;;25.20;33.80;;;;;;6110425;28;80441;-71
2021/10/14 12:55:20;;;;;;;10.55;4.07;;;25.20;33.60;;;;;;6111169;28;80778;-70
2021/10/14 12:58:20;;;;;;;5.70;3.60;;;25.20;33.70;;;;;;6111444;28;80380;-72
2021/10/14 13:01:21;;;;;;;9.65;3.70;;;25.20;33.80;;;;;;6109182;28;83545;-72
2021/10/14 13:04:22;;;;;;;6.07;3.65;;;25.30;34.20;;;;;;6110740;28;80536;-71
2021/10/14 13:07:22;;;;;;;6.60;3.65;;;25.30;34.50;;;;;;6108518;28;83294;-71
2021/10/14 13:10:22;;;;;;;5.25;3.45;;;25.30;34.50;;;;;;6110852;28;81395;-70
2021/10/14 13:13:24;;;;;;;5.88;3.20;;;25.30;34.30;;;;;;6110399;28;81450;-72
2021/10/14 13:16:25;;;;;;;6.15;3.78;;;25.20;34.30;;;;;;6110647;28;80405;-71
2021/10/14 13:19:25;;;;;;;4.50;3.20;;;25.20;34.40;;;;;;6109745;28;83172;-71
2021/10/14 13:22:26;;;;;;;6.30;3.15;;;25.20;34.50;;;;;;6110371;28;80537;-70
2021/10/14 13:25:26;;;;;;;4.10;2.67;;;25.30;34.70;;;;;;6107969;28;84115;-71
2021/10/14 13:28:29;;;;;;;4.32;3.00;;;25.30;34.60;;;;;;6110165;28;80891;-71
2021/10/14 13:31:29;;;;;;;4.97;3.33;;;25.30;34.50;;;;;;6108687;28;81442;-68
2021/10/14 13:34:30;;;;;;;7.20;3.35;;;25.30;34.50;;;;;;6109012;28;80723;-68
2021/10/14 13:37:30;;;;;;;5.45;3.50;;;25.30;34.60;;;;;;6107784;28;82352;-68
2021/10/14 13:40:31;;;;;;;5.03;3.17;;;25.30;34.20;;;;;;6110137;28;80589;-69
2021/10/14 13:43:34;;;;;;;4.43;2.90;;;25.30;34.20;;;;;;6109619;28;80210;-68
2021/10/14 13:46:34;;;;;;;6.43;3.13;;;25.30;34.20;;;;;;6108526;28;81201;-67
2021/10/14 13:49:35;;;;;;;4.20;3.13;;;25.20;33.90;;;;;;6109546;28;81532;-69
2021/10/14 13:52:36;;;;;;;3.80;2.63;;;25.20;34.10;;;;;;6107916;28;80569;-69
2021/10/14 13:55:37;;;;;;;4.10;2.70;;;25.20;34.10;;;;;;6108944;28;80722;-68
2021/10/14 13:58:37;;;;;;;5.22;3.00;;;25.20;33.90;;;;;;6111936;28;80553;-69
2021/10/14 14:01:38;;;;;;;4.15;2.88;;;25.20;33.80;;;;;;6114413;28;81335;-69
2021/10/14 14:04:38;;;;;;;4.90;3.10;;;25.20;33.80;;;;;;6110857;28;81717;-65
2021/10/14 14:07:41;;;;;;;3.80;2.63;;;25.20;33.60;;;;;;6110794;28;82114;-65
2021/10/14 14:10:41;;;;;;;3.72;2.75;;;25.20;33.50;;;;;;6110076;28;81034;-65
2021/10/14 14:13:42;;;;;;;3.95;2.80;;;25.20;33.60;;;;;;6109109;28;80550;-65
2021/10/14 14:16:42;;;;;;;4.07;2.53;;;25.20;33.90;;;;;;6110679;28;80954;-65
2021/10/14 14:19:43;;;;;;;3.58;2.58;;;25.20;33.80;;;;;;6108980;28;80022;-66
2021/10/14 14:22:43;;;;;;;4.63;2.90;;;25.20;33.90;;;;;;6111326;28;81641;-65
2021/10/14 14:25:44;;;;;;;3.97;2.15;;;25.20;34.10;;;;;;6109863;28;82418;-66
2021/10/14 14:28:44;;;;;;;3.83;2.50;;;25.30;34.50;;;;;;6115335;28;80886;-65
2021/10/14 14:31:45;;;;;;;3.05;2.70;;;25.20;34.40;;;;;;6097480;28;81572;-65
2021/10/14 14:34:45;;;;;;;2.47;2.17;;;25.30;34.50;;;;;;6086257;28;82103;-65
2021/10/14 14:37:46;;;;;;;3.17;2.38;;;25.20;34.70;;;;;;6086547;28;81640;-65
2021/10/14 14:40:47;;;;;;;3.78;2.55;;;25.20;34.80;;;;;;6086201;28;81890;-65
2021/10/14 14:43:47;;;;;;;3.20;2.50;;;25.20;34.80;;;;;;6085189;28;80592;-67
2021/10/14 14:46:52;;;;;;;3.70;2.58;;;25.20;35.10;;;;;;6085169;28;81034;-66
2021/10/14 14:52:59;;;;;;;3.33;2.58;;;25.20;35.20;;;;;;6083468;28;83980;-67
2021/10/14 14:55:59;;;;;;;4.25;2.95;;;25.20;35.40;;;;;;6086665;28;80539;-66
2021/10/14 14:59:00;;;;;;;3.75;2.70;;;25.10;35.40;;;;;;6086388;28;82141;-65
2021/10/14 15:02:00;;;;;;;3.97;2.80;;;25.20;35.60;;;;;;6084698;28;81455;-66
2021/10/14 15:05:01;;;;;;;3.95;2.60;;;25.10;35.80;;;;;;6077997;28;80533;-65
2021/10/14 15:08:01;;;;;;;3.15;2.25;;;25.10;35.70;;;;;;6099902;28;81891;-66
2021/10/14 15:11:02;;;;;;;5.00;2.40;;;25.10;35.40;;;;;;6087402;28;80827;-66
2021/10/14 15:14:02;;;;;;;3.95;2.80;;;25.10;35.70;;;;;;6086296;28;81373;-66
2021/10/14 15:17:03;;;;;;;4.40;2.63;;;25.10;35.90;;;;;;6087420;28;80264;-66
2021/10/14 15:20:03;;;;;;;4.97;2.85;;;25.10;35.90;;;;;;6085074;28;80603;-66
2021/10/14 15:23:04;;;;;;;4.32;2.88;;;25.10;35.90;;;;;;6085010;28;80823;-62
2021/10/14 15:26:04;;;;;;;4.57;2.72;;;25.10;35.80;;;;;;6085909;28;81523;-70
2021/10/14 15:29:05;;;;;;;5.28;2.80;;;25.10;35.70;;;;;;6079488;28;80563;-70
2021/10/14 15:32:06;;;;;;;4.05;2.78;;;25.00;35.80;;;;;;6084693;28;80957;-72
2021/10/14 15:35:06;;;;;;;4.57;3.00;;;25.00;35.70;;;;;;6082296;28;80753;-71
2021/10/14 15:38:08;;;;;;;7.50;3.00;;;25.10;36.00;;;;;;6084296;28;81033;-72